createdAt,value
2018-11-23T00:00:40.553Z,47.50
2018-11-23T00:03:09.034Z,47.37
2018-11-23T00:05:37.499Z,54.13
2018-11-23T00:08:08.951Z,55.30
2018-11-23T00:10:37.598Z,52.53
2018-11-23T00:13:06.304Z,52.90
2018-11-23T00:15:34.861Z,46.73
2018-11-23T00:18:03.306Z,48.53
2018-11-23T00:20:31.836Z,41.63
2018-11-23T00:23:00.365Z,50.63
2018-11-23T00:25:29.116Z,43.97
2018-11-23T00:27:58.107Z,47.83
2018-11-23T00:30:27.969Z,47.17
2018-11-23T00:32:56.472Z,46.83
2018-11-23T00:35:26.121Z,51.43
2018-11-23T00:37:55.001Z,48.67
2018-11-23T00:40:25.510Z,47.40
2018-11-23T00:42:54.245Z,49.07
2018-11-23T00:45:22.795Z,48.00
2018-11-23T00:47:52.128Z,52.57
2018-11-23T00:50:21.701Z,46.87
2018-11-23T00:52:50.621Z,46.77
2018-11-23T00:55:20.145Z,49.40
2018-11-23T00:57:48.605Z,44.67
2018-11-23T01:00:23.260Z,47.47
2018-11-23T01:02:52.337Z,48.03
2018-11-23T01:05:20.828Z,55.30
2018-11-23T01:07:49.476Z,48.60
2018-11-23T01:10:19.099Z,47.37
2018-11-23T01:12:48.465Z,47.07
2018-11-23T01:15:16.843Z,40.90
2018-11-23T01:17:45.233Z,46.77
2018-11-23T01:20:35.799Z,48.67
2018-11-23T01:23:04.167Z,45.70
2018-11-23T01:25:32.593Z,46.00
2018-11-23T01:28:00.987Z,44.60
2018-11-23T01:30:30.663Z,48.70
2018-11-23T01:32:59.100Z,46.30
2018-11-23T01:35:27.430Z,47.87
2018-11-23T01:37:55.859Z,50.27
2018-11-23T01:40:25.572Z,46.67
2018-11-23T01:42:54.254Z,53.90
2018-11-23T01:45:22.701Z,46.40
2018-11-23T01:47:51.045Z,45.53
2018-11-23T01:50:20.779Z,46.63
2018-11-23T01:52:49.882Z,44.63
2018-11-23T01:55:18.996Z,47.50
2018-11-23T01:57:47.696Z,48.27
2018-11-23T02:00:17.748Z,47.03
2018-11-23T02:02:46.730Z,46.20
2018-11-23T02:05:15.279Z,51.10
2018-11-23T02:07:43.700Z,51.07
2018-11-23T02:10:13.427Z,50.83
2018-11-23T02:12:41.838Z,49.77
2018-11-23T02:15:15.028Z,50.33
2018-11-23T02:18:02.765Z,50.33
2018-11-23T02:20:31.205Z,48.93
2018-11-23T02:22:59.569Z,45.97
2018-11-23T02:25:27.976Z,48.30
2018-11-23T02:27:56.353Z,48.90
2018-11-23T02:30:25.828Z,45.00
2018-11-23T02:32:54.348Z,48.63
2018-11-23T02:35:22.722Z,51.27
2018-11-23T02:37:51.073Z,49.47
2018-11-23T02:40:20.343Z,44.40
2018-11-23T02:42:48.701Z,44.37
2018-11-23T02:45:18.384Z,46.73
2018-11-23T02:47:47.389Z,46.73
2018-11-23T02:50:15.807Z,50.03
2018-11-23T02:52:44.554Z,44.80
2018-11-23T02:55:14.241Z,48.27
2018-11-23T02:57:42.641Z,53.53
2018-11-23T03:00:30.390Z,47.33
2018-11-23T03:02:58.796Z,50.67
2018-11-23T03:05:27.180Z,47.40
2018-11-23T03:07:55.651Z,46.63
2018-11-23T03:10:24.140Z,47.97
2018-11-23T03:12:52.633Z,47.23
2018-11-23T03:15:21.518Z,44.80
2018-11-23T03:17:50.511Z,49.50
2018-11-23T03:20:20.197Z,45.00
2018-11-23T03:22:48.654Z,44.97
2018-11-23T03:25:17.183Z,43.53
2018-11-23T03:27:45.716Z,44.07
2018-11-23T03:30:16.313Z,47.37
2018-11-23T03:32:45.639Z,48.10
2018-11-23T03:35:14.288Z,52.77
2018-11-23T03:49:18.890Z,41.97
2018-11-23T03:51:47.838Z,44.20
2018-11-23T03:54:16.654Z,45.37
2018-11-23T03:56:45.146Z,47.03
2018-11-23T03:59:13.632Z,40.90
2018-11-23T04:01:42.117Z,39.27
2018-11-23T04:04:10.634Z,41.47
2018-11-23T04:06:39.134Z,38.40
2018-11-23T04:09:08.526Z,41.37
2018-11-23T05:00:22.713Z,36.10
2018-11-23T05:02:51.178Z,36.57
2018-11-23T05:05:19.676Z,38.67
2018-11-23T05:07:48.719Z,39.67
2018-11-23T05:10:17.855Z,44.97
2018-11-23T05:12:46.732Z,38.60
2018-11-23T05:15:16.612Z,40.67
2018-11-23T05:17:46.195Z,37.80
2018-11-23T05:20:15.241Z,42.43
2018-11-23T05:22:43.980Z,39.20
2018-11-23T05:25:13.738Z,46.17
2018-11-23T05:27:42.247Z,44.97
2018-11-23T05:30:12.967Z,38.63
2018-11-23T05:32:41.440Z,40.07
2018-11-23T05:46:07.611Z,37.93
2018-11-23T05:48:36.034Z,38.23
2018-11-23T05:51:04.538Z,41.37
2018-11-23T05:53:32.965Z,39.27
2018-11-23T05:56:01.358Z,39.43
2018-11-23T05:58:29.760Z,39.93
2018-11-23T06:00:58.184Z,42.93
2018-11-23T06:03:26.634Z,41.30
2018-11-23T06:05:54.918Z,43.70
2018-11-23T06:08:23.325Z,39.50
2018-11-23T06:10:51.765Z,41.17
2018-11-23T06:13:20.179Z,45.07
2018-11-23T06:15:48.561Z,44.07
2018-11-23T06:18:16.929Z,42.27
2018-11-23T06:20:45.375Z,48.37
2018-11-23T06:23:13.768Z,42.60
2018-11-23T06:25:44.371Z,43.43
2018-11-23T06:28:12.861Z,45.40
2018-11-23T06:30:41.234Z,42.83
2018-11-23T06:33:32.657Z,46.60
2018-11-23T06:36:01.012Z,45.50
2018-11-23T06:38:29.422Z,51.67
2018-11-23T06:40:57.770Z,50.60
2018-11-23T06:43:26.177Z,45.77
2018-11-23T06:45:54.564Z,46.90
2018-11-23T06:48:23.230Z,53.47
2018-11-23T06:50:51.630Z,49.10
2018-11-23T06:53:20.037Z,46.43
2018-11-23T06:55:48.466Z,52.00
2018-11-23T06:58:16.849Z,47.70
2018-11-23T07:00:45.285Z,46.63
2018-11-23T07:03:13.602Z,47.83
2018-11-23T07:05:42.059Z,50.13
2018-11-23T07:08:11.293Z,52.17
2018-11-23T07:10:39.751Z,52.23
2018-11-23T07:13:08.692Z,46.13
2018-11-23T07:15:37.191Z,50.07
2018-11-23T07:18:06.498Z,46.53
2018-11-23T07:20:34.949Z,45.53
2018-11-23T07:23:03.307Z,44.23
2018-11-23T07:25:31.735Z,49.07
2018-11-23T07:28:00.122Z,45.47
2018-11-23T07:30:29.153Z,50.37
2018-11-23T07:32:57.715Z,45.07
2018-11-23T07:35:26.198Z,49.57
2018-11-23T07:37:54.733Z,47.60
2018-11-23T07:41:01.896Z,47.93
2018-11-23T07:43:30.448Z,45.37
2018-11-23T07:45:58.916Z,46.83
2018-11-23T07:48:27.369Z,49.93
2018-11-23T07:50:55.910Z,43.53
2018-11-23T07:53:24.316Z,47.03
2018-11-23T07:55:52.812Z,46.67
2018-11-23T07:58:21.462Z,42.30
2018-11-23T08:00:50.043Z,45.57
2018-11-23T08:03:18.519Z,43.77
2018-11-23T08:05:47.065Z,46.63
2018-11-23T08:13:47.495Z,41.37
2018-11-23T08:16:15.945Z,39.83
2018-11-23T08:18:44.529Z,41.63
2018-11-23T08:21:13.001Z,38.43
2018-11-23T08:23:41.477Z,41.13
2018-11-23T08:26:09.978Z,42.20
2018-11-23T08:28:39.053Z,36.00
2018-11-23T08:31:07.584Z,38.20
2018-11-23T08:33:36.147Z,42.87
2018-11-23T08:36:04.647Z,38.33
2018-11-23T08:38:33.171Z,39.57
2018-11-23T08:41:01.656Z,37.77
2018-11-23T08:43:30.108Z,41.33
2018-11-23T08:45:58.642Z,39.60
2018-11-23T08:48:30.149Z,38.27
2018-11-23T08:50:58.604Z,39.50
2018-11-23T08:58:58.215Z,37.03
2018-11-23T09:01:26.704Z,38.07
2018-11-23T09:03:55.558Z,37.20
2018-11-23T09:06:24.067Z,38.73
2018-11-23T09:08:52.728Z,36.00
2018-11-23T09:11:21.197Z,34.30
2018-11-23T09:13:50.650Z,35.57
2018-11-23T09:16:19.156Z,34.70
2018-11-23T09:18:47.599Z,34.03
2018-11-23T09:21:16.108Z,31.10
2018-11-23T09:23:44.686Z,29.87
2018-11-23T09:26:13.155Z,33.70
2018-11-23T09:28:41.659Z,36.27
2018-11-23T09:31:10.140Z,31.90
2018-11-23T09:33:38.898Z,32.17
2018-11-23T09:36:07.369Z,32.17
2018-11-23T09:38:35.842Z,30.97
2018-11-23T09:41:04.371Z,31.70
2018-11-23T09:43:32.918Z,30.87
2018-11-23T09:46:01.635Z,31.13
2018-11-23T09:48:30.371Z,28.97
2018-11-23T09:50:58.857Z,29.80
2018-11-23T09:53:27.464Z,33.60
2018-11-23T09:55:55.973Z,28.93
2018-11-23T09:58:24.589Z,32.83
2018-11-23T10:00:53.194Z,32.40
2018-11-23T10:03:21.609Z,28.27
2018-11-23T10:05:50.115Z,29.73
2018-11-23T10:08:18.612Z,29.03
2018-11-23T10:10:47.123Z,27.93
2018-11-23T10:13:15.678Z,26.90
2018-11-23T10:15:44.249Z,26.10
2018-11-23T10:18:12.768Z,29.83
2018-11-23T10:20:41.225Z,28.67
2018-11-23T10:31:27.913Z,28.10
2018-11-23T10:33:56.264Z,27.63
2018-11-23T10:36:24.734Z,27.63
2018-11-23T10:38:53.178Z,27.80
2018-11-23T10:41:21.602Z,27.87
2018-11-23T10:43:49.955Z,26.33
2018-11-23T10:46:18.365Z,24.13
2018-11-23T10:48:46.809Z,26.00
2018-11-23T10:51:15.181Z,25.57
2018-11-23T10:53:43.565Z,25.07
2018-11-23T10:56:11.945Z,25.13
2018-11-23T10:58:40.411Z,26.97
2018-11-23T11:01:27.783Z,29.27
2018-11-23T11:04:15.231Z,27.70
2018-11-23T11:07:02.982Z,26.23
2018-11-23T11:09:31.373Z,23.03
2018-11-23T11:11:59.784Z,24.97
2018-11-23T11:14:28.171Z,27.57
2018-11-23T11:16:56.627Z,30.03
2018-11-23T11:19:25.224Z,29.43
2018-11-23T11:21:53.689Z,31.40
2018-11-23T11:24:22.157Z,32.40
2018-11-23T11:26:50.544Z,28.77
2018-11-23T11:29:18.913Z,28.57
2018-11-23T11:31:47.318Z,29.73
2018-11-23T11:34:15.790Z,26.60
2018-11-23T11:36:44.433Z,25.63
2018-11-23T11:39:13.472Z,27.87
2018-11-23T11:41:41.875Z,25.73
2018-11-23T11:44:10.369Z,29.23
2018-11-23T11:46:38.811Z,27.77
2018-11-23T11:49:07.283Z,28.43
2018-11-23T11:51:35.586Z,28.63
2018-11-23T11:54:04.046Z,27.63
2018-11-23T11:56:32.446Z,25.97
2018-11-23T11:59:00.846Z,25.13
2018-11-23T12:01:29.209Z,28.37
2018-11-23T12:03:58.048Z,22.63
2018-11-23T12:06:26.427Z,23.77
2018-11-23T12:08:54.884Z,22.80
2018-11-23T12:11:23.463Z,24.03
2018-11-23T12:13:52.128Z,23.07
2018-11-23T12:16:20.536Z,20.80
2018-11-23T12:18:48.905Z,25.73
2018-11-23T12:21:17.281Z,21.30
2018-11-23T12:23:45.708Z,21.63
2018-11-23T12:26:14.385Z,23.83
2018-11-23T12:28:42.792Z,22.23
2018-11-23T12:31:11.297Z,21.23
2018-11-23T12:33:40.011Z,20.47
2018-11-23T12:36:08.423Z,21.17
2018-11-23T12:38:40.169Z,20.93
2018-11-23T12:41:05.347Z,19.73
2018-11-23T12:43:33.821Z,21.07
2018-11-23T12:46:02.181Z,21.63
2018-11-23T12:48:30.607Z,21.17
2018-11-23T12:50:59.033Z,20.90
2018-11-23T12:53:27.725Z,22.80
2018-11-23T12:55:56.368Z,23.87
2018-11-23T12:58:24.803Z,19.90
2018-11-23T13:00:53.490Z,19.23
2018-11-23T13:03:21.976Z,20.03
2018-11-23T13:05:50.359Z,21.37
2018-11-23T13:08:18.731Z,19.33
2018-11-23T13:10:47.104Z,19.13
2018-11-23T13:13:15.510Z,19.30
2018-11-23T13:15:43.992Z,20.67
2018-11-23T13:18:12.468Z,19.37
2018-11-23T13:20:40.897Z,19.97
2018-11-23T13:23:09.294Z,19.97
2018-11-23T13:25:37.685Z,20.67
2018-11-23T13:28:06.376Z,16.93
2018-11-23T13:30:36.354Z,16.57
2018-11-23T13:33:04.938Z,19.33
2018-11-23T13:35:33.369Z,17.53
2018-11-23T13:38:01.812Z,18.93
2018-11-23T13:40:30.706Z,20.40
2018-11-23T13:42:59.911Z,17.27
2018-11-23T13:45:29.744Z,18.27
2018-11-23T13:47:58.125Z,15.63
2018-11-23T13:50:27.432Z,18.17
2018-11-23T13:52:57.367Z,17.73
2018-11-23T13:55:25.787Z,18.03
2018-11-23T13:57:54.194Z,18.40
2018-11-23T14:00:23.953Z,17.37
2018-11-23T14:02:52.387Z,17.53
2018-11-23T14:05:22.196Z,18.77
2018-11-23T14:07:51.958Z,20.77
2018-11-23T14:10:21.810Z,19.43
2018-11-23T14:13:11.575Z,18.57
2018-11-23T14:15:38.018Z,18.73
2018-11-23T14:18:06.419Z,18.77
2018-11-23T14:20:34.810Z,18.93
2018-11-23T14:23:03.196Z,18.77
2018-11-23T14:25:32.230Z,20.97
2018-11-23T14:28:00.712Z,21.00
2018-11-23T14:30:30.653Z,18.83
2018-11-23T14:32:59.311Z,21.20
2018-11-23T14:35:29.178Z,19.87
2018-11-23T14:37:58.385Z,20.33
2018-11-23T14:40:26.840Z,22.23
2018-11-23T14:42:55.598Z,20.87
2018-11-23T14:45:29.055Z,19.93
2018-11-23T14:47:58.308Z,19.83
2018-11-23T14:50:28.241Z,19.63
2018-11-23T14:52:57.511Z,20.07
2018-11-23T14:55:26.273Z,23.67
2018-11-23T14:57:54.877Z,23.33
2018-11-23T15:00:26.404Z,22.03
2018-11-23T15:02:55.903Z,23.17
2018-11-23T15:05:24.236Z,24.23
2018-11-23T15:07:52.615Z,22.63
2018-11-23T15:10:22.485Z,22.77
2018-11-23T15:12:52.117Z,24.63
2018-11-23T15:15:24.786Z,22.87
2018-11-23T15:17:53.792Z,24.70
2018-11-23T15:20:42.342Z,23.03
2018-11-23T15:23:15.025Z,23.47
2018-11-23T15:25:43.451Z,24.03
2018-11-23T15:28:12.417Z,25.43
2018-11-23T15:30:41.480Z,24.13
2018-11-23T15:33:11.200Z,26.30
2018-11-23T15:35:40.199Z,24.33
2018-11-23T15:38:10.594Z,23.00
2018-11-23T15:40:39.002Z,25.37
2018-11-23T15:43:09.050Z,24.97
2018-11-23T15:45:37.551Z,26.73
2018-11-23T15:48:06.758Z,29.60
2018-11-23T15:50:36.494Z,27.83
2018-11-23T15:53:05.202Z,26.37
2018-11-23T15:55:34.729Z,25.43
2018-11-23T15:58:07.517Z,28.93
2018-11-23T16:00:39.901Z,26.07
2018-11-23T16:03:09.426Z,26.17
2018-11-23T16:05:38.080Z,28.43
2018-11-23T16:08:30.051Z,24.93
2018-11-23T16:10:58.052Z,26.50
2018-11-23T16:13:26.567Z,28.90
2018-11-23T16:15:54.931Z,29.67
2018-11-23T16:18:23.302Z,27.07
2018-11-23T16:20:51.706Z,28.57
2018-11-23T16:23:21.137Z,29.83
2018-11-23T16:25:50.200Z,29.10
2018-11-23T16:28:18.645Z,25.57
2018-11-23T16:30:48.528Z,27.00
2018-11-23T16:33:20.989Z,23.93
2018-11-23T16:35:49.395Z,25.23
2018-11-23T16:38:19.373Z,29.17
2018-11-23T16:40:49.313Z,33.40
2018-11-23T16:43:17.758Z,32.63
2018-11-23T16:45:46.515Z,32.53
2018-11-23T16:48:15.729Z,34.67
2018-11-23T16:50:44.809Z,37.87
2018-11-23T16:53:13.342Z,37.33
2018-11-23T16:55:41.791Z,40.63
2018-11-23T16:58:11.414Z,35.47
2018-11-23T17:00:41.421Z,35.60
2018-11-23T17:03:11.509Z,31.63
2018-11-23T17:05:59.052Z,33.50
2018-11-23T17:08:27.707Z,29.90
2018-11-23T17:10:56.097Z,31.67
2018-11-23T17:13:24.479Z,30.53
2018-11-23T17:15:52.877Z,31.63
2018-11-23T17:18:21.255Z,32.80
2018-11-23T17:20:49.739Z,31.27
2018-11-23T17:23:18.118Z,33.07
2018-11-23T17:25:46.520Z,34.57
2018-11-23T17:28:15.783Z,28.60
2018-11-23T17:30:44.262Z,30.20
2018-11-23T17:33:13.436Z,31.87
2018-11-23T17:35:41.949Z,29.43
2018-11-23T17:38:10.354Z,28.50
2018-11-23T17:40:40.059Z,27.97
2018-11-23T17:43:08.844Z,27.80
2018-11-23T17:45:56.641Z,46.07
2018-11-23T17:48:25.010Z,37.40
2018-11-23T17:50:57.670Z,31.80
2018-11-23T17:53:26.095Z,30.77
2018-11-23T17:55:54.548Z,28.60
2018-11-23T17:58:22.953Z,31.13
2018-11-23T18:00:51.427Z,28.87
2018-11-23T18:03:19.882Z,28.50
2018-11-23T18:05:48.359Z,32.67
2018-11-23T18:08:16.746Z,31.13
2018-11-23T18:10:45.118Z,30.73
2018-11-23T18:13:13.545Z,29.90
2018-11-23T18:15:42.000Z,27.57
2018-11-23T18:18:10.392Z,29.17
2018-11-23T18:20:38.777Z,29.67
2018-11-23T18:23:07.252Z,29.90
2018-11-23T18:25:37.368Z,33.93
2018-11-23T18:28:06.181Z,37.13
2018-11-23T18:30:35.053Z,34.60
2018-11-23T18:33:07.203Z,33.03
2018-11-23T18:35:35.634Z,37.37
2018-11-23T18:38:04.031Z,33.73
2018-11-23T18:40:37.317Z,32.20
2018-11-23T18:43:00.834Z,35.50
2018-11-23T18:45:29.193Z,32.60
2018-11-23T18:47:57.624Z,31.07
2018-11-23T18:50:26.009Z,32.67
2018-11-23T18:52:54.417Z,32.87
2018-11-23T18:55:22.814Z,35.77
2018-11-23T18:57:51.643Z,38.67
2018-11-23T19:00:19.945Z,34.50
2018-11-23T19:02:48.526Z,36.17
2018-11-23T19:05:36.291Z,33.23
2018-11-23T19:08:04.823Z,36.80
2018-11-23T19:10:33.175Z,39.73
2018-11-23T19:13:01.854Z,37.53
2018-11-23T19:15:30.234Z,35.80
2018-11-23T19:17:58.684Z,38.67
2018-11-23T19:20:26.987Z,36.03
2018-11-23T19:22:55.696Z,36.60
2018-11-23T19:25:24.160Z,32.37
2018-11-23T19:27:52.554Z,37.03
2018-11-23T19:30:28.027Z,37.57
2018-11-23T19:32:51.108Z,37.53
2018-11-23T19:35:19.478Z,35.60
2018-11-23T19:37:47.957Z,35.83
2018-11-23T19:40:16.518Z,36.30
2018-11-23T19:42:45.465Z,37.23
2018-11-23T19:45:33.727Z,48.60
2018-11-23T19:48:02.478Z,34.60
2018-11-23T19:50:31.985Z,37.30
2018-11-23T19:53:00.391Z,34.50
2018-11-23T19:55:29.057Z,34.63
2018-11-23T19:57:57.747Z,34.97
2018-11-23T20:00:26.844Z,30.20
2018-11-23T20:02:55.284Z,36.87
2018-11-23T20:05:23.898Z,35.27
2018-11-23T20:08:12.468Z,32.33
2018-11-23T20:10:41.243Z,35.37
2018-11-23T20:13:09.664Z,33.67
2018-11-23T20:15:38.373Z,37.07
2018-11-23T20:18:07.401Z,39.83
2018-11-23T20:20:35.831Z,37.80
2018-11-23T20:23:04.385Z,38.73
2018-11-23T20:25:33.011Z,36.27
2018-11-23T20:28:01.472Z,40.13
2018-11-23T20:30:29.842Z,36.73
2018-11-23T20:32:58.236Z,42.70
2018-11-23T20:35:26.623Z,35.80
2018-11-23T20:37:55.014Z,35.40
2018-11-23T20:40:23.914Z,33.97
2018-11-23T20:42:52.394Z,36.77
2018-11-23T20:45:20.796Z,33.03
2018-11-23T20:47:49.178Z,35.03
2018-11-23T20:50:18.140Z,32.63
2018-11-23T20:52:46.530Z,36.10
2018-11-23T20:55:34.899Z,37.33
2018-11-23T20:58:22.635Z,32.20
2018-11-23T21:00:51.035Z,34.63
2018-11-23T21:03:19.561Z,35.77
2018-11-23T21:05:48.544Z,35.17
2018-11-23T21:08:17.012Z,32.50
2018-11-23T21:10:45.489Z,35.60
2018-11-23T21:13:14.013Z,34.43
2018-11-23T21:15:43.302Z,35.83
2018-11-23T21:18:12.055Z,34.27
2018-11-23T21:20:41.105Z,32.17
2018-11-23T21:23:09.792Z,30.80
2018-11-23T21:25:38.542Z,32.97
2018-11-23T21:28:07.057Z,32.40
2018-11-23T21:30:35.517Z,35.27
2018-11-23T21:33:04.490Z,37.53
2018-11-23T21:35:33.000Z,35.90
2018-11-23T21:38:02.021Z,35.70
2018-11-23T21:40:30.489Z,30.17
2018-11-23T21:42:59.055Z,32.90
2018-11-23T21:45:27.500Z,29.10
2018-11-23T21:47:56.008Z,32.60
2018-11-23T21:50:25.902Z,33.07
2018-11-23T21:52:53.423Z,32.40
2018-11-23T21:55:22.743Z,31.47
2018-11-23T21:57:51.860Z,32.00
2018-11-23T22:00:20.551Z,34.00
2018-11-23T22:02:49.071Z,32.57
2018-11-23T22:05:17.628Z,37.07
2018-11-23T22:07:46.102Z,30.33
2018-11-23T22:10:18.787Z,30.33
2018-11-23T22:12:47.180Z,31.77
2018-11-23T22:15:19.743Z,33.83
2018-11-23T22:17:48.587Z,32.53
2018-11-23T22:20:18.102Z,31.00
2018-11-23T22:22:46.482Z,32.63
2018-11-23T22:25:15.818Z,32.67
2018-11-23T22:27:44.282Z,32.70
2018-11-23T22:30:16.612Z,32.13
2018-11-23T22:32:45.062Z,31.60
2018-11-23T22:35:13.720Z,34.20
2018-11-23T22:37:42.139Z,33.07
2018-11-23T22:40:30.179Z,33.50
2018-11-23T22:42:59.219Z,31.03
2018-11-23T22:45:27.867Z,30.97
2018-11-23T22:47:56.305Z,31.90
2018-11-23T22:50:24.997Z,31.30
2018-11-23T22:52:53.370Z,31.10
2018-11-23T22:55:22.042Z,30.90
2018-11-23T22:57:50.500Z,29.93
2018-11-23T23:00:41.878Z,33.13
2018-11-23T23:03:10.255Z,33.87
2018-11-23T23:05:39.837Z,32.13
2018-11-23T23:08:07.204Z,31.97
2018-11-23T23:10:36.133Z,33.07
2018-11-23T23:13:05.046Z,36.53
2018-11-23T23:15:33.542Z,28.00
2018-11-23T23:18:02.074Z,33.67
2018-11-23T23:20:30.959Z,32.60
2018-11-23T23:22:59.708Z,31.97
2018-11-23T23:25:28.288Z,34.93
2018-11-23T23:27:56.706Z,33.37
2018-11-23T23:30:25.205Z,35.37
2018-11-23T23:32:53.631Z,30.70
2018-11-23T23:35:22.577Z,31.37
2018-11-23T23:37:51.023Z,34.63
2018-11-23T23:40:20.285Z,31.67
2018-11-23T23:42:49.457Z,31.23
2018-11-23T23:45:18.654Z,32.13
2018-11-23T23:47:47.174Z,32.77
2018-11-23T23:58:54.093Z,32.37
